Time;durP1;ratioP1;P1;durP2;ratioP2;P2;SDS_P1;SDS_P2;PMS_P1;PMS_P2;Temp;Humidity;BMP_temperature;BMP_pressure;BME280_temperature;BME280_humidity;BME280_pressure;Samples;Min_cycle;Max_cycle;Signal;HPM_P1;HPM_P2
2021/12/17 00:01:05;;;;;;;11.15;5.70;;;;;;;6.26;55.20;100387.06;3115617;28;20104;-79
2021/12/17 00:04:31;;;;;;;9.82;4.80;;;;;;;6.31;54.98;100393.03;3122070;28;20549;-79
2021/12/17 00:07:54;;;;;;;9.50;5.15;;;;;;;6.22;55.20;100386.28;3117551;28;20068;-75
2021/12/17 00:09:27;;;;;;;8.23;4.63;;;;;;;6.30;54.92;100399.94;3120814;28;20057;-76
2021/12/17 00:10:58;;;;;;;7.82;4.70;;;;;;;6.28;54.98;100399.09;3121250;28;20041;-76
2021/12/17 00:12:30;;;;;;;9.20;4.70;;;;;;;6.32;54.78;100397.31;3121927;28;20107;-75
2021/12/17 00:14:02;;;;;;;9.02;5.18;;;;;;;6.32;54.62;100400.75;3120594;28;20592;-75
2021/12/17 00:15:34;;;;;;;8.88;5.22;;;;;;;6.30;54.81;100391.28;3120537;28;20685;-73
2021/12/17 00:17:10;;;;;;;9.15;4.53;;;;;;;6.24;54.81;100370.72;3120521;28;20053;-73
2021/12/17 00:18:56;;;;;;;10.75;5.35;;;;;;;6.31;54.71;100382.69;3121350;28;20045;-74
2021/12/17 00:20:53;;;;;;;8.57;4.68;;;;;;;6.29;54.97;100379.25;3121638;28;20128;-76
2021/12/17 00:49:59;;;;;;;9.05;4.97;;;;;;;5.93;54.93;100379.03;3121251;28;20053;-75
2021/12/17 00:53:25;;;;;;;10.13;5.13;;;;;;;5.93;55.10;100381.59;3117427;28;20149;-77
2021/12/17 00:54:57;;;;;;;8.57;4.88;;;;;;;5.97;55.16;100377.22;3120283;28;20552;-75
2021/12/17 00:56:28;;;;;;;8.73;5.13;;;;;;;5.64;55.20;100333.81;3120424;28;20049;-75
2021/12/17 00:58:01;;;;;;;11.27;5.70;;;;;;;6.01;55.00;100387.50;3120619;28;20050;-76
2021/12/17 00:59:34;;;;;;;;;;;;;;;5.78;55.41;100385.28;3120974;28;20057;-76
2021/12/17 01:01:06;;;;;;;9.32;5.22;;;;;;;5.82;55.43;100380.91;3113488;28;19925;-75
2021/12/17 01:02:38;;;;;;;11.10;5.60;;;;;;;5.91;55.25;100379.00;3119406;28;20049;-74
2021/12/17 01:04:10;;;;;;;11.70;5.97;;;;;;;5.98;55.29;100384.13;3121147;28;20096;-76
2021/12/17 01:05:42;;;;;;;8.90;5.40;;;;;;;6.01;54.98;100384.94;3120581;28;20578;-76
2021/12/17 01:07:15;;;;;;;9.95;5.65;;;;;;;5.98;55.00;100384.97;3119724;28;20068;-75
2021/12/17 01:08:48;;;;;;;8.82;4.85;;;;;;;5.97;55.16;100372.06;3120593;28;20137;-75
2021/12/17 01:10:26;;;;;;;10.02;5.18;;;;;;;6.06;54.95;100374.47;3120224;28;20467;-75
2021/12/17 01:11:59;;;;;;;11.05;5.50;;;;;;;6.07;54.91;100379.66;3121234;28;20045;-75
2021/12/17 01:13:35;;;;;;;9.30;4.95;;;;;;;6.11;54.98;100373.53;3119322;28;20052;-76
2021/12/17 01:15:11;;;;;;;9.07;5.07;;;;;;;6.10;54.94;100369.25;3120403;28;20049;-76
2021/12/17 01:16:44;;;;;;;9.48;5.13;;;;;;;6.09;54.97;100371.84;3120365;28;20436;-75
2021/12/17 01:18:19;;;;;;;9.60;5.30;;;;;;;6.10;54.84;100369.25;3119317;28;20057;-75
2021/12/17 01:21:58;;;;;;;9.80;4.90;;;;;;;6.09;54.73;100362.38;3114715;28;20145;-76
2021/12/17 01:23:58;;;;;;;8.50;4.40;;;;;;;6.10;54.76;100368.41;3120710;28;20053;-76
2021/12/17 01:25:41;;;;;;;11.10;4.97;;;;;;;6.10;54.75;100369.25;3119303;28;20498;-76
2021/12/17 01:36:33;;;;;;;9.60;4.85;;;;;;;6.12;54.70;100349.41;3118395;28;20041;-77
2021/12/17 01:42:04;;;;;;;9.88;5.28;;;;;;;6.05;54.88;100340.03;3105332;28;20057;-77
2021/12/17 01:43:41;;;;;;;10.35;5.03;;;;;;;6.17;54.66;100353.63;3119821;28;20054;-77
2021/12/17 01:45:15;;;;;;;10.88;5.60;;;;;;;6.21;54.72;100356.13;3120215;28;20104;-77
2021/12/17 01:46:52;;;;;;;10.00;5.57;;;;;;;6.23;54.89;100374.19;3119856;28;20053;-77
2021/12/17 01:48:31;;;;;;;10.85;5.28;;;;;;;6.09;54.66;100339.13;3119124;28;20129;-77
2021/12/17 01:56:01;;;;;;;10.75;5.45;;;;;;;6.20;54.95;100356.16;3118979;28;20140;-76
2021/12/17 01:59:35;;;;;;;;;;;;;;;5.94;55.23;100354.88;3119400;28;20535;-72
2021/12/17 02:01:09;;;;;;;9.48;4.82;;;;;;;6.00;55.24;100359.94;3112658;28;19952;-74
2021/12/17 02:02:44;;;;;;;;;;;;;;;5.85;55.46;100360.16;3117172;28;20041;-76
2021/12/17 02:04:16;;;;;;;9.10;5.05;;;;;;;5.83;55.44;100341.28;3120270;28;19996;-76
2021/12/17 02:05:48;;;;;;;9.80;5.05;;;;;;;6.03;55.20;100356.44;3119303;28;20453;-76
2021/12/17 02:07:20;;;;;;;9.63;5.18;;;;;;;5.78;55.15;100314.63;3119453;28;20140;-77
2021/12/17 02:08:54;;;;;;;9.38;5.43;;;;;;;6.08;55.17;100360.66;3120445;28;20064;-77
2021/12/17 02:12:59;;;;;;;11.70;5.63;;;;;;;6.06;55.43;100358.97;3075025;28;20139;-77
2021/12/17 02:30:17;;;;;;;9.45;5.30;;;;;;;5.93;55.59;100345.41;3080163;28;20057;-79
2021/12/17 02:31:54;;;;;;;9.60;5.55;;;;;;;6.05;55.48;100360.72;3082237;28;20074;-79
2021/12/17 02:33:26;;;;;;;10.60;5.20;;;;;;;6.08;55.48;100354.63;3079514;28;20441;-78
2021/12/17 02:35:19;;;;;;;10.38;5.35;;;;;;;6.11;55.32;100342.50;3087132;28;20051;-77
2021/12/17 02:36:54;;;;;;;11.60;6.20;;;;;;;6.08;55.57;100336.53;3118075;28;20462;-80
2021/12/17 02:38:28;;;;;;;9.93;5.43;;;;;;;6.07;55.32;100342.59;3120075;28;20668;-78
2021/12/17 02:40:14;;;;;;;10.50;5.43;;;;;;;6.08;55.47;100336.53;3118288;28;20049;-78
2021/12/17 02:45:34;;;;;;;11.48;5.15;;;;;;;6.06;55.28;100327.94;3119562;28;20128;-77
2021/12/17 02:47:07;;;;;;;11.25;5.05;;;;;;;5.95;55.50;100312.66;3119400;28;20522;-77
2021/12/17 02:48:42;;;;;;;10.43;5.63;;;;;;;6.09;55.37;100338.22;3119384;28;20045;-77
2021/12/17 02:50:13;;;;;;;9.13;5.10;;;;;;;6.07;55.52;100333.09;3119891;28;20049;-77
2021/12/17 02:51:48;;;;;;;11.73;5.40;;;;;;;6.04;55.19;100325.41;3118431;28;20056;-77
2021/12/17 02:53:23;;;;;;;9.50;5.15;;;;;;;6.05;55.36;100334.00;3119850;28;20144;-77
2021/12/17 02:54:57;;;;;;;10.52;5.32;;;;;;;6.02;55.41;100337.50;3118950;28;20049;-76
2021/12/17 02:56:28;;;;;;;9.85;5.60;;;;;;;5.96;55.36;100335.03;3117526;28;20080;-77
2021/12/17 02:58:00;;;;;;;9.93;4.85;;;;;;;5.97;55.44;100343.63;3119821;28;20041;-77
2021/12/17 02:59:33;;;;;;;10.57;5.53;;;;;;;5.96;55.40;100339.34;3118284;28;20049;-77
2021/12/17 03:01:06;;;;;;;;;;;;;;;5.69;55.77;100342.34;3108018;28;20046;-78
2021/12/17 03:02:38;;;;;;;10.43;4.97;;;;;;;5.73;56.24;100352.63;3114509;28;19983;-78
2021/12/17 03:04:12;;;;;;;8.98;4.82;;;;;;;5.78;55.83;100345.66;3118668;28;20046;-78
2021/12/17 03:05:44;;;;;;;11.57;5.45;;;;;;;5.75;56.02;100340.53;3119308;28;20076;-78
2021/12/17 03:07:16;;;;;;;10.07;5.15;;;;;;;5.79;55.88;100353.38;3117367;28;20206;-76
2021/12/17 03:08:49;;;;;;;8.73;4.60;;;;;;;5.72;56.02;100336.28;3120020;28;20049;-78
2021/12/17 03:10:20;;;;;;;7.78;4.40;;;;;;;5.65;56.02;100332.94;3119035;28;20103;-77
2021/12/17 03:11:51;;;;;;;9.77;5.10;;;;;;;5.71;56.20;100337.16;3119169;28;20072;-77
2021/12/17 03:13:24;;;;;;;7.78;4.38;;;;;;;5.69;56.27;100336.31;3119210;28;20057;-75
2021/12/17 03:15:03;;;;;;;9.35;5.38;;;;;;;5.68;56.38;100330.31;3117215;28;20057;-77
2021/12/17 03:16:40;;;;;;;8.75;4.90;;;;;;;5.66;56.36;100329.47;3120113;28;20057;-77
2021/12/17 03:23:43;;;;;;;10.48;4.70;;;;;;;5.44;56.86;100316.06;3105890;28;20056;-76
2021/12/17 03:25:16;;;;;;;11.25;5.50;;;;;;;5.56;56.92;100340.84;3114891;28;20053;-76
2021/12/17 03:26:48;;;;;;;;;;;;;;;5.36;57.06;100342.88;3118534;28;20107;-75
2021/12/17 03:28:19;;;;;;;10.63;4.47;;;;;;;5.37;57.45;100342.00;3119229;28;19987;-75
2021/12/17 03:29:51;;;;;;;9.65;4.80;;;;;;;5.45;57.31;100342.75;3116921;28;20548;-75
2021/12/17 03:31:24;;;;;;;10.30;5.57;;;;;;;5.49;57.25;100349.56;3119704;28;20045;-79
2021/12/17 03:32:55;;;;;;;;;;;;;;;5.29;57.48;100356.75;3118061;28;20514;-77
2021/12/17 03:34:30;;;;;;;8.57;4.85;;;;;;;5.32;57.70;100352.38;3119047;28;19921;-77
2021/12/17 03:36:01;;;;;;;8.90;5.15;;;;;;;5.41;57.54;100344.53;3118870;28;20049;-77
2021/12/17 03:37:33;;;;;;;9.68;4.93;;;;;;;5.31;57.43;100319.69;3117247;28;20115;-77
2021/12/17 03:39:04;;;;;;;9.75;5.22;;;;;;;5.45;57.53;100337.56;3119581;28;20061;-78
2021/12/17 03:40:40;;;;;;;8.55;5.13;;;;;;;5.50;57.51;100345.22;3118381;28;20045;-78
2021/12/17 03:42:14;;;;;;;10.75;4.90;;;;;;;5.53;57.54;100346.06;3119066;28;20519;-77
2021/12/17 03:43:46;;;;;;;9.27;5.18;;;;;;;5.56;57.46;100345.13;3118557;28;20045;-78
2021/12/17 03:45:20;;;;;;;11.07;5.28;;;;;;;5.59;57.44;100338.22;3118426;28;20121;-78
2021/12/17 03:46:53;;;;;;;9.90;5.68;;;;;;;5.58;57.47;100335.63;3119698;28;20045;-80
2021/12/17 03:48:24;;;;;;;9.20;4.97;;;;;;;5.59;57.49;100330.47;3117756;28;20061;-79
2021/12/17 03:49:58;;;;;;;10.73;4.95;;;;;;;5.59;57.46;100329.59;3119320;28;20055;-80
2021/12/17 03:51:30;;;;;;;8.70;4.80;;;;;;;5.63;57.54;100332.09;3118343;28;20045;-79
2021/12/17 03:53:02;;;;;;;9.20;4.88;;;;;;;5.67;57.42;100338.91;3118966;28;20045;-79
2021/12/17 03:54:35;;;;;;;8.80;5.10;;;;;;;5.70;57.41;100331.09;3119228;28;20049;-77
2021/12/17 03:56:09;;;;;;;8.95;4.93;;;;;;;5.65;57.25;100320.03;3118523;28;20049;-79
2021/12/17 03:57:41;;;;;;;9.65;4.47;;;;;;;5.73;57.28;100326.78;3119292;28;20052;-77
2021/12/17 03:59:13;;;;;;;9.80;5.35;;;;;;;5.76;57.15;100326.72;3118228;28;20057;-77
2021/12/17 04:00:45;;;;;;;10.35;5.25;;;;;;;5.73;57.23;100311.28;3115326;28;20112;-77
2021/12/17 04:02:17;;;;;;;10.88;5.50;;;;;;;5.50;57.00;100280.66;3112391;28;20049;-77
2021/12/17 04:03:49;;;;;;;9.20;5.05;;;;;;;5.83;57.20;100328.34;3118794;28;20041;-77
2021/12/17 04:05:21;;;;;;;10.75;5.25;;;;;;;5.85;57.06;100337.75;3118886;28;20107;-76
2021/12/17 04:06:52;;;;;;;11.32;5.40;;;;;;;5.88;57.10;100334.25;3117813;28;20611;-77
2021/12/17 04:08:24;;;;;;;13.13;6.35;;;;;;;5.86;57.03;100325.72;3119400;28;20049;-76
2021/12/17 04:09:56;;;;;;;11.02;5.55;;;;;;;5.90;56.95;100324.75;3118056;28;20436;-75
2021/12/17 04:11:30;;;;;;;10.93;6.07;;;;;;;5.94;57.03;100321.25;3117556;28;20049;-77
2021/12/17 04:13:14;;;;;;;10.80;6.07;;;;;;;5.88;57.14;100311.84;3118713;28;20152;-79
2021/12/17 04:14:48;;;;;;;10.05;5.35;;;;;;;5.83;57.07;100316.28;3116407;28;20108;-79
2021/12/17 04:16:23;;;;;;;9.27;5.07;;;;;;;5.99;57.09;100323.78;3119745;28;20057;-79
2021/12/17 04:17:57;;;;;;;10.65;5.63;;;;;;;5.99;57.07;100324.63;3116635;28;20056;-80
2021/12/17 04:19:29;;;;;;;10.40;5.18;;;;;;;6.03;56.98;100326.25;3118217;28;20596;-79
2021/12/17 04:21:02;;;;;;;10.18;5.50;;;;;;;5.57;56.97;100244.38;3118051;28;20502;-80
2021/12/17 04:22:34;;;;;;;13.60;6.60;;;;;;;6.05;56.88;100329.69;3118590;28;20100;-81
2021/12/17 04:24:07;;;;;;;11.02;5.63;;;;;;;6.09;56.83;100320.13;3118921;28;20557;-81
2021/12/17 04:25:37;;;;;;;10.43;5.93;;;;;;;6.09;56.80;100321.00;3118680;28;20450;-78
2021/12/17 04:27:11;;;;;;;9.40;5.20;;;;;;;6.13;56.67;100321.81;3119091;28;20095;-78
2021/12/17 04:28:45;;;;;;;;;;;;;;;5.91;57.20;100318.69;3118252;28;20047;-78
2021/12/17 04:30:17;;;;;;;8.02;4.80;;;;;;;5.96;57.26;100316.94;3117492;28;19924;-77
2021/12/17 04:31:53;;;;;;;7.88;4.47;;;;;;;6.05;56.83;100319.34;3118144;28;20060;-78
2021/12/17 04:33:26;;;;;;;9.43;4.95;;;;;;;6.07;56.99;100314.16;3117368;28;20057;-78
2021/12/17 04:34:57;;;;;;;8.48;4.80;;;;;;;6.09;56.71;100312.38;3118902;28;20053;-78
2021/12/17 04:36:32;;;;;;;10.20;5.00;;;;;;;6.11;56.70;100316.63;3118803;28;20179;-78
2021/12/17 04:38:06;;;;;;;7.88;4.60;;;;;;;6.15;56.62;100320.91;3120040;28;20091;-77
2021/12/17 04:39:38;;;;;;;12.80;5.72;;;;;;;6.18;56.66;100317.38;3120932;28;20057;-77
2021/12/17 04:43:12;;;;;;;10.98;4.88;;;;;;;6.17;56.61;100317.41;3120416;28;20323;-77
2021/12/17 04:44:51;;;;;;;10.77;5.20;;;;;;;6.18;56.77;100325.13;3119043;28;20608;-77
2021/12/17 04:46:30;;;;;;;9.27;5.10;;;;;;;6.20;56.54;100313.03;3121651;28;20056;-78
2021/12/17 04:57:20;;;;;;;10.50;5.35;;;;;;;6.21;56.59;100329.41;3120054;28;20473;-76
2021/12/17 04:58:55;;;;;;;10.50;5.72;;;;;;;6.21;56.56;100324.22;3120067;28;20072;-78
2021/12/17 05:00:30;;;;;;;11.18;5.18;;;;;;;6.23;56.60;100325.06;3118132;28;20049;-76
2021/12/17 05:02:03;;;;;;;9.93;5.53;;;;;;;6.10;56.67;100296.84;3111278;28;20045;-79
2021/12/17 05:03:35;;;;;;;11.45;5.95;;;;;;;6.14;56.61;100314.00;3119737;28;20544;-80
2021/12/17 05:05:09;;;;;;;10.18;5.45;;;;;;;6.25;56.36;100321.56;3120656;28;20067;-81
2021/12/17 05:06:41;;;;;;;11.38;5.32;;;;;;;6.19;56.36;100295.81;3119759;28;20045;-82
2021/12/17 05:08:20;;;;;;;10.07;5.03;;;;;;;5.88;56.47;100248.97;3121014;28;20078;-79
2021/12/17 05:10:01;;;;;;;8.85;4.93;;;;;;;5.78;56.35;100235.38;3120079;28;20131;-83
2021/12/17 05:18:14;;;;;;;6.35;4.07;;;;;;;6.27;56.39;100327.56;3119504;28;20327;-80
2021/12/17 05:19:10;;;;;;;9.00;5.22;;;;;;;6.24;56.59;100319.88;3119836;28;20045;-79
2021/12/17 05:20:47;;;;;;;10.15;5.25;;;;;;;6.26;56.44;100322.41;3120191;28;20049;-77
2021/12/17 05:22:20;;;;;;;11.00;5.55;;;;;;;6.25;56.53;100315.53;3119260;28;20052;-80
2021/12/17 05:23:52;;;;;;;10.07;5.43;;;;;;;6.26;56.40;100309.47;3121156;28;20092;-80
2021/12/17 05:25:26;;;;;;;10.52;5.15;;;;;;;6.24;56.48;100314.69;3120170;28;20319;-80
2021/12/17 05:26:58;;;;;;;10.15;4.93;;;;;;;6.26;56.32;100310.31;3120821;28;20133;-80
2021/12/17 05:28:41;;;;;;;11.68;6.13;;;;;;;5.97;56.27;100254.00;3119909;28;20463;-85
2021/12/17 05:30:19;;;;;;;10.02;5.57;;;;;;;6.28;56.35;100302.56;3119468;28;20156;-80
2021/12/17 05:31:52;;;;;;;11.13;6.38;;;;;;;6.33;56.40;100298.13;3119935;28;20057;-77
2021/12/17 05:33:26;;;;;;;11.75;6.05;;;;;;;6.32;56.39;100299.84;3118623;28;20058;-77
2021/12/17 05:34:57;;;;;;;;;;;;;;;6.10;56.41;100289.09;3108517;28;20053;-79
2021/12/17 05:36:29;;;;;;;10.80;5.78;;;;;;;6.16;56.79;100282.94;3114057;28;20035;-79
2021/12/17 05:38:01;;;;;;;11.45;5.68;;;;;;;6.24;56.54;100287.97;3119996;28;20506;-77
2021/12/17 05:39:32;;;;;;;8.65;5.13;;;;;;;6.28;56.26;100279.28;3119943;28;20057;-77
2021/12/17 05:41:04;;;;;;;11.63;5.78;;;;;;;6.28;56.11;100268.94;3119278;28;20427;-78
2021/12/17 05:42:36;;;;;;;11.23;6.65;;;;;;;6.27;56.13;100267.19;3120139;28;21125;-75
2021/12/17 05:44:08;;;;;;;12.05;5.72;;;;;;;6.33;56.09;100278.31;3117949;28;20107;-76
2021/12/17 05:45:50;;;;;;;13.40;5.70;;;;;;;6.32;55.95;100270.56;3120519;28;20510;-76
2021/12/17 05:47:23;;;;;;;8.77;5.03;;;;;;;6.34;55.95;100276.56;3119507;28;20060;-76
2021/12/17 05:48:55;;;;;;;9.88;4.82;;;;;;;6.34;55.86;100286.91;3120699;28;20152;-76
2021/12/17 05:50:28;;;;;;;8.00;4.32;;;;;;;6.37;55.70;100276.50;3120079;28;20045;-76
2021/12/17 05:52:00;;;;;;;14.30;5.45;;;;;;;6.38;55.56;100270.44;3117503;28;20045;-73
2021/12/17 05:53:32;;;;;;;10.65;5.03;;;;;;;6.40;55.63;100267.81;3119327;28;20061;-75
2021/12/17 05:55:04;;;;;;;10.73;5.07;;;;;;;6.38;55.47;100260.09;3119798;28;20115;-75
2021/12/17 05:56:36;;;;;;;10.02;4.60;;;;;;;6.40;55.46;100260.91;3118331;28;20053;-74
2021/12/17 05:58:09;;;;;;;9.05;5.10;;;;;;;6.38;55.53;100255.75;3119952;28;20053;-73
2021/12/17 05:59:41;;;;;;;8.40;4.80;;;;;;;6.35;55.44;100252.38;3118156;28;20041;-72
2021/12/17 06:01:13;;;;;;;8.35;5.00;;;;;;;6.31;55.30;100245.59;3112417;28;20045;-73
2021/12/17 06:02:46;;;;;;;7.10;4.22;;;;;;;6.32;55.19;100261.06;3114981;28;20056;-71
2021/12/17 06:04:18;;;;;;;9.57;4.32;;;;;;;6.31;55.32;100269.72;3118792;28;20111;-72
2021/12/17 06:05:50;;;;;;;9.35;4.60;;;;;;;6.32;55.34;100265.38;3119954;28;20064;-73
2021/12/17 06:07:26;;;;;;;8.82;4.90;;;;;;;6.33;55.11;100267.97;3119223;28;20132;-73
2021/12/17 06:09:00;;;;;;;8.70;4.50;;;;;;;6.29;55.37;100265.44;3120404;28;20081;-73
2021/12/17 06:10:33;;;;;;;14.55;5.22;;;;;;;6.28;55.22;100268.94;3119221;28;20549;-72
2021/12/17 06:12:05;;;;;;;10.50;4.90;;;;;;;6.30;55.30;100268.03;3117986;28;20045;-73
2021/12/17 06:13:37;;;;;;;13.15;4.78;;;;;;;6.27;55.17;100264.63;3119909;28;20506;-71
2021/12/17 06:15:11;;;;;;;10.05;4.70;;;;;;;6.31;55.22;100269.72;3119145;28;20049;-71
2021/12/17 06:16:43;;;;;;;8.77;4.45;;;;;;;6.37;55.38;100276.50;3120348;28;20049;-73
2021/12/17 06:18:17;;;;;;;8.45;4.30;;;;;;;6.42;55.26;100271.22;3119057;28;20049;-73
2021/12/17 06:19:49;;;;;;;8.68;5.43;;;;;;;6.43;55.21;100268.59;3119461;28;20130;-73
2021/12/17 06:21:21;;;;;;;10.10;5.95;;;;;;;6.44;55.24;100259.94;3119209;28;20096;-73
2021/12/17 06:22:53;;;;;;;9.70;5.28;;;;;;;6.46;55.37;100268.53;3119302;28;20048;-72
2021/12/17 06:24:25;;;;;;;12.95;6.78;;;;;;;6.44;55.22;100251.34;3120664;28;20057;-73
2021/12/17 06:25:57;;;;;;;10.93;5.47;;;;;;;6.55;54.99;100272.69;3119128;28;20125;-73
2021/12/17 06:27:29;;;;;;;8.00;5.25;;;;;;;6.58;54.85;100276.03;3119624;28;20053;-72
2021/12/17 06:29:01;;;;;;;13.38;6.72;;;;;;;6.61;55.17;100281.16;3119131;28;20083;-73
2021/12/17 06:30:33;;;;;;;13.95;7.90;;;;;;;6.62;54.99;100279.41;3119263;28;20280;-73
2021/12/17 06:32:06;;;;;;;13.60;7.68;;;;;;;6.69;54.99;100280.16;3117651;28;20054;-74
2021/12/17 06:33:40;;;;;;;11.88;6.93;;;;;;;6.68;54.91;100278.44;3118743;28;20099;-75
2021/12/17 06:35:11;;;;;;;11.45;7.10;;;;;;;6.69;55.03;100275.81;3119587;28;20543;-70
2021/12/17 06:36:43;;;;;;;11.85;6.25;;;;;;;6.72;55.06;100267.16;3119127;28;20053;-69
2021/12/17 06:38:15;;;;;;;10.00;5.80;;;;;;;6.70;55.00;100263.72;3119359;28;20049;-67
2021/12/17 06:39:48;;;;;;;12.60;5.43;;;;;;;6.78;55.05;100269.59;3118851;28;20041;-66
2021/12/17 06:41:20;;;;;;;11.35;6.10;;;;;;;6.76;54.97;100267.03;3116763;28;20049;-65
2021/12/17 06:42:52;;;;;;;9.27;5.40;;;;;;;6.84;54.91;100279.81;3118534;28;20418;-63
2021/12/17 06:44:26;;;;;;;14.30;5.88;;;;;;;6.89;55.07;100267.63;3117790;28;20144;-64
2021/12/17 06:46:12;;;;;;;12.30;5.88;;;;;;;6.89;54.85;100257.28;3118483;28;20052;-64
2021/12/17 06:47:52;;;;;;;11.70;5.80;;;;;;;6.89;54.93;100267.63;3117654;28;20065;-67
2021/12/17 06:49:31;;;;;;;10.98;5.55;;;;;;;7.02;54.66;100275.97;3117595;28;20068;-68
2021/12/17 06:55:02;;;;;;;9.93;5.32;;;;;;;6.79;54.20;100240.22;3117620;28;20553;-67
2021/12/17 07:00:19;;;;;;;11.68;5.78;;;;;;;6.95;54.22;100267.50;3116459;28;20128;-67
2021/12/17 07:05:59;;;;;;;12.02;6.10;;;;;;;7.04;54.31;100282.81;3087504;28;20055;-68
2021/12/17 07:22:41;;;;;;;11.60;5.03;;;;;;;7.06;54.29;100262.88;3104985;28;20211;-67
2021/12/17 07:24:47;;;;;;;11.35;4.78;;;;;;;7.20;54.21;100285.88;3116847;28;20056;-66
2021/12/17 07:28:25;;;;;;;12.57;5.55;;;;;;;7.02;54.51;100244.88;3116496;28;20072;-67
2021/12/17 07:33:43;;;;;;;9.93;5.25;;;;;;;7.36;54.65;100288.94;3098030;28;20821;-69
2021/12/17 07:38:54;;;;;;;10.48;4.68;;;;;;;7.56;54.58;100290.22;3117826;28;20045;-69
2021/12/17 07:40:25;;;;;;;9.73;4.95;;;;;;;7.64;54.27;100288.28;3118656;28;20050;-68
2021/12/17 07:41:56;;;;;;;11.02;5.55;;;;;;;7.73;54.32;100294.09;3115354;28;20049;-69
2021/12/17 07:43:36;;;;;;;11.85;5.25;;;;;;;7.82;54.03;100290.41;3117354;28;20359;-69
2021/12/17 07:45:09;;;;;;;14.07;6.63;;;;;;;7.89;54.10;100291.09;3116820;28;20057;-69
2021/12/17 07:46:41;;;;;;;11.48;5.40;;;;;;;7.96;53.91;100285.72;3116619;28;20389;-69
2021/12/17 07:48:13;;;;;;;16.23;5.55;;;;;;;8.04;53.86;100285.50;3117878;28;20049;-69
2021/12/17 07:49:45;;;;;;;12.10;5.40;;;;;;;8.10;53.67;100280.13;3116893;28;20057;-71
2021/12/17 07:51:19;;;;;;;14.25;5.53;;;;;;;8.20;53.46;100273.81;3117704;28;20603;-70
2021/12/17 07:52:50;;;;;;;10.85;3.88;;;;;;;8.23;53.28;100272.03;3116113;28;20046;-71
2021/12/17 07:54:23;;;;;;;8.80;4.68;;;;;;;8.32;53.19;100276.97;3117338;28;20057;-74
2021/12/17 07:55:55;;;;;;;7.60;4.00;;;;;;;8.35;52.70;100272.53;3116934;28;20462;-73
2021/12/17 07:57:27;;;;;;;6.75;3.60;;;;;;;8.41;52.84;100268.94;3117087;28;20454;-73
2021/12/17 07:58:59;;;;;;;9.52;3.50;;;;;;;8.53;52.68;100273.78;3118209;28;20052;-74
2021/12/17 08:00:31;;;;;;;11.50;4.57;;;;;;;8.60;52.46;100264.91;3116134;28;20123;-71
2021/12/17 08:02:03;;;;;;;8.98;4.75;;;;;;;8.68;52.22;100263.84;3117265;28;20049;-71
2021/12/17 08:03:35;;;;;;;12.93;4.32;;;;;;;8.47;52.09;100219.44;3118159;28;20111;-73
2021/12/17 08:05:07;;;;;;;8.77;4.50;;;;;;;8.78;51.99;100255.72;3116440;28;20592;-74
2021/12/17 08:06:40;;;;;;;10.18;4.15;;;;;;;8.88;51.67;100262.34;3116933;28;20156;-71
2021/12/17 08:08:12;;;;;;;15.52;4.60;;;;;;;8.86;51.26;100239.91;3112937;28;20049;-72
2021/12/17 08:09:46;;;;;;;9.75;4.88;;;;;;;9.05;51.53;100256.63;3115166;28;20458;-73
2021/12/17 08:11:18;;;;;;;9.88;4.10;;;;;;;9.10;51.17;100251.25;3115879;28;20057;-73
2021/12/17 08:12:54;;;;;;;10.70;4.80;;;;;;;9.18;51.14;100243.25;3117949;28;20049;-68
2021/12/17 08:14:28;;;;;;;7.65;3.38;;;;;;;9.17;51.08;100228.53;3119759;28;20047;-68
2021/12/17 08:18:17;;;;;;;8.50;3.85;;;;;;;9.33;50.33;100253.97;3117339;28;20056;-69
2021/12/17 08:25:45;;;;;;;6.97;3.67;;;;;;;9.32;50.36;100239.28;3104575;28;20236;-71
2021/12/17 08:27:27;;;;;;;6.28;3.45;;;;;;;9.42;50.32;100246.78;3120052;28;20103;-68
2021/12/17 08:29:24;;;;;;;8.73;3.60;;;;;;;9.48;49.93;100234.41;3118237;28;20042;-69
2021/12/17 08:30:56;;;;;;;7.65;3.58;;;;;;;9.47;50.02;100234.50;3119917;28;20053;-68
2021/12/17 08:32:28;;;;;;;7.25;3.53;;;;;;;9.48;50.15;100230.97;3119013;28;20065;-68
2021/12/17 08:34:02;;;;;;;8.57;3.60;;;;;;;9.49;49.98;100224.88;3120009;28;20061;-69
2021/12/17 08:35:34;;;;;;;9.85;4.13;;;;;;;8.96;49.96;100149.53;3118334;28;20057;-69
2021/12/17 08:37:07;;;;;;;9.90;4.65;;;;;;;9.46;50.28;100237.97;3120350;28;20073;-69
2021/12/17 08:38:38;;;;;;;7.80;3.33;;;;;;;9.43;50.24;100238.91;3118294;28;20041;-69
2021/12/17 08:40:11;;;;;;;12.02;4.25;;;;;;;9.45;50.32;100242.31;3120348;28;20064;-69
2021/12/17 08:41:45;;;;;;;7.05;3.72;;;;;;;9.50;49.92;100242.19;3116182;28;20045;-69
2021/12/17 08:43:16;;;;;;;10.32;3.90;;;;;;;9.50;50.01;100239.59;3119489;28;20128;-69
2021/12/17 08:44:48;;;;;;;8.40;3.58;;;;;;;9.56;49.58;100232.41;3116091;28;20046;-69
2021/12/17 08:46:20;;;;;;;8.10;3.50;;;;;;;9.66;49.81;100219.09;3119716;28;20485;-69
2021/12/17 08:47:52;;;;;;;9.00;3.45;;;;;;;9.74;49.58;100230.94;3117100;28;20050;-69
2021/12/17 08:49:24;;;;;;;11.40;3.17;;;;;;;9.82;49.15;100229.81;3118772;28;20053;-69
2021/12/17 08:50:58;;;;;;;6.07;3.22;;;;;;;9.93;49.26;100232.88;3117075;28;20576;-69
2021/12/17 08:52:30;;;;;;;5.35;2.90;;;;;;;10.04;48.95;100230.75;3119456;28;20063;-69
2021/12/17 08:54:01;;;;;;;5.82;3.22;;;;;;;10.14;49.06;100226.91;3118403;28;20057;-69
2021/12/17 08:55:33;;;;;;;6.57;3.25;;;;;;;10.21;48.56;100223.19;3117938;28;20057;-69
2021/12/17 08:57:07;;;;;;;7.28;3.20;;;;;;;10.29;48.34;100216.84;3118747;28;20061;-69
2021/12/17 08:58:39;;;;;;;5.53;3.08;;;;;;;10.28;48.27;100216.03;3119189;28;20049;-69
2021/12/17 09:00:13;;;;;;;6.47;3.00;;;;;;;10.35;48.40;100216.63;3119277;28;20053;-69
2021/12/17 09:01:45;;;;;;;6.63;3.55;;;;;;;10.35;48.66;100198.41;3117986;28;20053;-69
2021/12/17 09:03:17;;;;;;;5.50;3.30;;;;;;;10.45;48.38;100215.41;3120483;28;20542;-69
2021/12/17 09:04:49;;;;;;;6.05;3.20;;;;;;;10.47;48.12;100208.38;3117613;28;20049;-69
2021/12/17 09:06:24;;;;;;;6.30;2.80;;;;;;;10.53;48.42;100209.88;3120819;28;20049;-69
2021/12/17 09:07:56;;;;;;;5.35;2.70;;;;;;;10.56;48.20;100208.03;3116151;28;20042;-69
2021/12/17 09:09:27;;;;;;;8.88;2.67;;;;;;;10.55;47.80;100208.91;3120470;28;20057;-69
2021/12/17 09:11:00;;;;;;;5.95;3.40;;;;;;;10.27;47.99;100151.00;3118175;28;20053;-69
2021/12/17 09:12:36;;;;;;;8.13;2.97;;;;;;;10.54;48.21;100189.00;3120048;28;20045;-69
2021/12/17 09:14:07;;;;;;;6.45;2.90;;;;;;;10.53;48.33;100181.22;3118454;28;20045;-69
2021/12/17 09:15:40;;;;;;;6.70;3.33;;;;;;;10.45;47.95;100179.78;3118121;28;20115;-69
2021/12/17 09:17:11;;;;;;;5.55;2.95;;;;;;;10.43;48.34;100191.16;3116446;28;20132;-69
2021/12/17 09:18:45;;;;;;;7.00;2.50;;;;;;;10.39;48.64;100169.59;3118823;28;20060;-69
2021/12/17 09:20:17;;;;;;;8.00;3.17;;;;;;;10.42;48.33;100171.25;3118668;28;20111;-69
2021/12/17 09:21:49;;;;;;;10.13;3.22;;;;;;;10.44;48.35;100159.00;3117444;28;20434;-69
2021/12/17 09:23:22;;;;;;;8.48;3.53;;;;;;;10.24;48.56;100131.97;3119721;28;20460;-69
2021/12/17 09:24:54;;;;;;;6.15;3.20;;;;;;;10.39;48.54;100147.94;3116219;28;20141;-69
2021/12/17 09:26:27;;;;;;;6.55;3.70;;;;;;;10.41;48.40;100159.13;3121077;28;20457;-69
2021/12/17 09:28:00;;;;;;;;;;;;;;;10.26;49.07;100160.53;3118392;28;20042;-69
2021/12/17 09:29:32;;;;;;;7.47;3.63;;;;;;;10.35;48.98;100152.41;3120434;28;19921;-69
2021/12/17 09:31:05;;;;;;;9.15;3.95;;;;;;;10.44;48.79;100146.84;3116807;28;20068;-69
2021/12/17 09:32:38;;;;;;;17.02;5.05;;;;;;;10.48;48.54;100147.56;3112442;28;20546;-69
2021/12/17 09:34:10;;;;;;;6.70;3.95;;;;;;;10.52;48.64;100143.94;3113584;28;20071;-69
2021/12/17 09:35:43;;;;;;;8.15;4.40;;;;;;;10.61;48.29;100138.34;3120299;28;20186;-69
2021/12/17 09:37:15;;;;;;;10.50;4.57;;;;;;;10.65;48.66;100137.34;3114391;28;20054;-69
2021/12/17 09:38:49;;;;;;;10.68;4.13;;;;;;;10.73;48.51;100136.16;3108808;28;20057;-67
2021/12/17 09:40:22;;;;;;;8.57;4.43;;;;;;;10.74;48.45;100127.44;3103864;28;20072;-69
2021/12/17 09:41:55;;;;;;;10.13;6.00;;;;;;;10.75;48.50;100131.75;3109538;28;20146;-69
2021/12/17 09:43:30;;;;;;;8.57;4.45;;;;;;;10.80;48.20;100129.81;3111762;28;20514;-68
2021/12/17 09:45:04;;;;;;;11.00;6.20;;;;;;;10.77;48.07;100124.75;3108020;28;20045;-66
2021/12/17 09:46:36;;;;;;;5.38;3.13;;;;;;;10.72;48.59;100122.31;3109344;28;20208;-67